Time;durP1;ratioP1;P1;durP2;ratioP2;P2;SDS_P1;SDS_P2;PMS_P1;PMS_P2;Temp;Humidity;BMP_temperature;BMP_pressure;BME280_temperature;BME280_humidity;BME280_pressure;Samples;Min_cycle;Max_cycle;Signal;HPM_P1;HPM_P2
2021/11/18 00:03:32;;;;;;;16.23;4.65;;;;;;;5.73;61.97;102254.13;8007633;28;20035;-67
2021/11/18 00:07:25;;;;;;;12.82;5.10;;;;;;;5.71;62.00;102268.09;8006913;28;20070;-67
2021/11/18 00:11:19;;;;;;;11.13;4.82;;;;;;;5.72;61.83;102270.69;8005640;28;20037;-67
2021/11/18 00:15:11;;;;;;;12.35;5.15;;;;;;;5.72;61.50;102268.09;8006563;28;20037;-67
2021/11/18 00:19:04;;;;;;;12.77;4.97;;;;;;;5.70;61.43;102272.47;8005783;28;20029;-67
2021/11/18 00:22:55;;;;;;;14.80;5.45;;;;;;;5.71;61.75;102281.16;8004140;28;20141;-67
2021/11/18 00:26:46;;;;;;;11.02;5.63;;;;;;;5.68;61.67;102274.25;8006385;28;20407;-67
2021/11/18 00:30:37;;;;;;;13.80;5.97;;;;;;;5.67;61.95;102274.28;8005771;28;20039;-67
2021/11/18 00:34:28;;;;;;;13.60;5.65;;;;;;;5.64;61.53;102285.66;8006268;28;20083;-67
2021/11/18 00:38:20;;;;;;;9.75;4.90;;;;;;;5.63;61.47;102269.16;8002853;28;20025;-67
2021/11/18 00:42:10;;;;;;;16.10;6.38;;;;;;;5.62;61.89;102277.88;8005238;28;20032;-67
2021/11/18 00:46:01;;;;;;;11.98;4.80;;;;;;;5.59;61.81;102277.94;8005311;28;20037;-67
2021/11/18 00:49:52;;;;;;;8.82;4.60;;;;;;;5.58;61.50;102275.34;8004705;28;20021;-67
2021/11/18 00:53:50;;;;;;;15.63;6.25;;;;;;;5.57;61.62;102282.31;8003695;28;20045;-67
2021/11/18 00:57:42;;;;;;;18.23;6.10;;;;;;;5.57;61.95;102295.34;8004652;28;20029;-67
2021/11/18 01:01:43;;;;;;;12.55;5.45;;;;;;;5.57;61.84;102277.09;8004513;28;20673;-67
2021/11/18 01:05:36;;;;;;;13.27;5.22;;;;;;;5.53;61.82;102296.31;8000345;28;20501;-67
2021/11/18 01:09:28;;;;;;;13.40;5.28;;;;;;;5.50;61.79;102292.94;8004583;28;20036;-67
2021/11/18 01:13:21;;;;;;;17.00;5.60;;;;;;;5.50;61.67;102288.56;8004041;28;20037;-67
2021/11/18 01:17:12;;;;;;;11.57;5.07;;;;;;;5.49;61.74;102294.66;8003564;28;20033;-67
2021/11/18 01:21:05;;;;;;;10.70;5.13;;;;;;;5.47;61.62;102303.44;8002515;28;20381;-67
2021/11/18 01:25:00;;;;;;;15.52;4.60;;;;;;;5.44;61.52;102313.91;8004613;28;20104;-67
2021/11/18 01:28:54;;;;;;;15.98;5.40;;;;;;;5.40;61.49;102313.09;8003990;28;20519;-67
2021/11/18 01:32:49;;;;;;;21.40;5.40;;;;;;;5.39;61.49;102303.59;8004018;28;20041;-67
2021/11/18 01:36:45;;;;;;;11.40;4.90;;;;;;;5.35;61.76;102307.16;8003974;28;20033;-67
2021/11/18 01:40:43;;;;;;;12.90;5.55;;;;;;;5.34;61.30;102315.00;8003469;28;20036;-67
2021/11/18 01:44:52;;;;;;;10.65;4.93;;;;;;;5.30;61.78;102316.81;8002812;28;20065;-67
2021/11/18 01:48:48;;;;;;;11.32;4.93;;;;;;;5.23;61.70;102302.19;8003757;28;20052;-67
2021/11/18 01:52:40;;;;;;;14.27;5.05;;;;;;;5.27;61.60;102316.03;8000428;28;20510;-67
2021/11/18 01:56:33;;;;;;;13.52;4.38;;;;;;;5.27;61.41;102316.03;8003327;28;20043;-67
2021/11/18 02:00:29;;;;;;;15.20;5.05;;;;;;;5.24;61.38;102314.34;8003523;28;20029;-67
2021/11/18 02:04:23;;;;;;;11.25;5.15;;;;;;;5.24;61.64;102305.66;8002683;28;20029;-67
2021/11/18 02:08:23;;;;;;;20.45;5.38;;;;;;;5.16;61.75;102298.88;8002304;28;20524;-67
2021/11/18 02:12:28;;;;;;;14.40;4.70;;;;;;;5.13;61.36;102301.50;8003108;28;20041;-66
2021/11/18 02:16:19;;;;;;;15.57;5.40;;;;;;;5.18;61.70;102314.47;8002520;28;20079;-68
2021/11/18 02:20:18;;;;;;;13.70;4.50;;;;;;;5.17;61.40;102320.56;8003218;28;20056;-69
2021/11/18 02:24:26;;;;;;;14.40;6.13;;;;;;;5.15;61.52;102327.53;7998651;28;20423;-68
2021/11/18 02:28:29;;;;;;;9.38;4.07;;;;;;;5.13;61.65;102335.38;8001203;28;20033;-68
2021/11/18 02:32:23;;;;;;;14.60;4.93;;;;;;;5.12;61.40;102338.00;8007734;28;20033;-69
2021/11/18 02:36:18;;;;;;;18.67;4.95;;;;;;;5.09;61.34;102354.56;8009000;28;20132;-68
2021/11/18 02:40:10;;;;;;;10.55;5.53;;;;;;;5.09;61.54;102351.09;8008980;28;20091;-68
2021/11/18 02:44:02;;;;;;;12.93;4.88;;;;;;;5.06;61.62;102349.38;8008761;28;20411;-69
2021/11/18 02:47:54;;;;;;;12.90;5.40;;;;;;;5.04;61.56;102351.19;8008053;28;20037;-68
2021/11/18 02:51:48;;;;;;;12.90;5.35;;;;;;;5.03;61.46;102346.00;8006572;28;20067;-68
2021/11/18 02:55:42;;;;;;;13.93;4.65;;;;;;;5.01;61.60;102356.47;8007689;28;20391;-68
2021/11/18 02:59:33;;;;;;;14.23;5.38;;;;;;;5.01;61.44;102345.19;8008554;28;20048;-69
2021/11/18 03:03:25;;;;;;;12.80;4.95;;;;;;;5.00;61.43;102340.84;8007355;28;20100;-68
2021/11/18 03:07:15;;;;;;;13.88;4.95;;;;;;;4.99;61.99;102350.41;8007298;28;20064;-68
2021/11/18 03:11:06;;;;;;;17.67;5.20;;;;;;;4.97;61.44;102347.00;8007475;28;20025;-68
2021/11/18 03:14:58;;;;;;;13.35;4.97;;;;;;;4.90;61.46;102332.34;8007191;28;20082;-68
2021/11/18 03:18:49;;;;;;;12.40;4.45;;;;;;;4.96;61.42;102347.88;8007634;28;20627;-69
2021/11/18 03:22:42;;;;;;;13.95;5.47;;;;;;;4.94;61.63;102360.03;8004288;28;20136;-68
2021/11/18 03:26:33;;;;;;;11.48;5.10;;;;;;;4.88;61.58;102346.28;8006465;28;20031;-68
2021/11/18 03:30:40;;;;;;;15.02;5.85;;;;;;;4.93;61.86;102357.50;8007402;28;20032;-68
2021/11/18 03:34:34;;;;;;;11.20;5.47;;;;;;;4.92;61.54;102342.75;8007273;28;20037;-68
2021/11/18 03:38:28;;;;;;;11.43;5.03;;;;;;;4.91;61.49;102348.84;8005479;28;20068;-68
2021/11/18 03:42:36;;;;;;;18.40;6.03;;;;;;;4.90;61.79;102360.13;8003592;28;20086;-69
2021/11/18 03:46:40;;;;;;;12.00;5.55;;;;;;;4.89;61.58;102350.63;8003035;28;20033;-68
2021/11/18 03:50:34;;;;;;;15.68;5.38;;;;;;;4.83;61.56;102345.53;8001325;28;20068;-68
2021/11/18 03:54:26;;;;;;;17.30;5.45;;;;;;;4.89;61.73;102359.28;8005933;28;20106;-68
2021/11/18 03:58:22;;;;;;;14.60;5.65;;;;;;;4.90;61.81;102362.72;8005973;28;20065;-68
2021/11/18 04:02:15;;;;;;;14.25;6.03;;;;;;;4.89;61.88;102356.69;8006545;28;20122;-68
2021/11/18 04:06:08;;;;;;;12.35;5.55;;;;;;;4.87;61.94;102355.84;8007437;28;20025;-68
2021/11/18 04:10:21;;;;;;;17.63;5.72;;;;;;;4.89;61.67;102350.63;8005639;28;20029;-68
2021/11/18 04:14:13;;;;;;;18.27;5.82;;;;;;;4.89;61.88;102355.84;8008035;28;20763;-69
2021/11/18 04:18:04;;;;;;;16.52;6.97;;;;;;;4.86;61.83;102364.53;7989736;28;20029;-68
2021/11/18 04:22:00;;;;;;;12.82;6.07;;;;;;;4.83;62.04;102366.34;8003106;28;20047;-69
2021/11/18 04:25:52;;;;;;;11.40;5.93;;;;;;;4.84;62.08;102360.25;8006970;28;20024;-68
2021/11/18 04:29:43;;;;;;;15.00;6.75;;;;;;;4.84;62.04;102360.25;8006067;28;20435;-66
2021/11/18 04:33:36;;;;;;;16.95;6.03;;;;;;;4.85;62.05;102360.25;8005044;28;20045;-69
2021/11/18 04:37:27;;;;;;;14.52;6.32;;;;;;;4.85;62.03;102362.84;8006595;28;20440;-68
2021/11/18 04:41:19;;;;;;;13.38;7.25;;;;;;;4.84;62.13;102374.16;8005328;28;20082;-68
2021/11/18 04:45:12;;;;;;;12.63;6.68;;;;;;;4.83;61.87;102377.63;8004635;28;20390;-68
2021/11/18 04:49:04;;;;;;;17.25;7.15;;;;;;;4.84;62.13;102375.88;7989117;28;20048;-68
2021/11/18 04:52:57;;;;;;;16.58;7.18;;;;;;;4.83;61.98;102384.56;7999661;28;20060;-68
2021/11/18 04:56:48;;;;;;;18.80;7.90;;;;;;;4.82;62.13;102381.09;8004603;28;20090;-68
2021/11/18 05:00:46;;;;;;;15.75;6.97;;;;;;;4.82;62.09;102382.84;8005005;28;20037;-68
2021/11/18 05:04:38;;;;;;;14.63;6.85;;;;;;;4.82;62.04;102380.25;8004408;28;20032;-68
2021/11/18 05:08:29;;;;;;;14.45;6.80;;;;;;;4.77;62.19;102385.56;8004109;28;20036;-69
2021/11/18 05:12:20;;;;;;;13.88;7.13;;;;;;;4.84;62.17;102389.75;7999632;28;20040;-68
2021/11/18 05:16:15;;;;;;;13.07;6.53;;;;;;;4.87;62.32;102383.63;8004150;28;20032;-68
2021/11/18 05:20:08;;;;;;;13.02;6.05;;;;;;;4.90;62.43;102383.56;7986774;28;20052;-69
2021/11/18 05:24:02;;;;;;;15.63;7.80;;;;;;;4.93;62.31;102388.75;7979834;28;20362;-68
2021/11/18 05:27:54;;;;;;;13.88;7.07;;;;;;;4.96;62.20;102378.25;8004345;28;20029;-68
2021/11/18 05:31:44;;;;;;;17.23;7.47;;;;;;;4.98;62.60;102382.53;8004363;28;20036;-68
2021/11/18 05:35:55;;;;;;;16.17;7.00;;;;;;;5.01;62.48;102379.03;8004806;28;20057;-68
2021/11/18 05:39:45;;;;;;;14.05;7.07;;;;;;;5.02;62.67;102379.00;8004872;28;20079;-68
2021/11/18 05:43:40;;;;;;;15.18;6.45;;;;;;;5.04;62.60;102378.97;8003563;28;20037;-68
2021/11/18 05:47:31;;;;;;;15.38;5.85;;;;;;;5.05;62.55;102378.09;8001575;28;20028;-68
2021/11/18 05:51:23;;;;;;;16.77;6.65;;;;;;;5.04;62.77;102377.22;8001934;28;20108;-68
2021/11/18 05:55:17;;;;;;;13.57;7.03;;;;;;;5.10;62.51;102384.06;8002959;28;20029;-68
2021/11/18 05:59:09;;;;;;;16.05;5.95;;;;;;;5.11;62.56;102370.13;8002993;28;20501;-68
2021/11/18 06:03:01;;;;;;;15.60;6.13;;;;;;;5.08;62.75;102365.00;8001906;28;20059;-68
2021/11/18 06:06:52;;;;;;;14.00;7.28;;;;;;;5.12;62.78;102364.91;8002782;28;20029;-68
2021/11/18 06:10:43;;;;;;;15.90;7.10;;;;;;;5.17;62.64;102380.50;8002814;28;20037;-68
2021/11/18 06:14:35;;;;;;;12.90;6.60;;;;;;;5.18;62.90;102375.25;8002752;28;20044;-68
2021/11/18 06:18:29;;;;;;;14.82;6.43;;;;;;;5.21;62.50;102374.31;8000382;28;20111;-69
2021/11/18 06:22:24;;;;;;;10.40;5.43;;;;;;;5.15;62.52;102358.81;8000587;28;20047;-68
2021/11/18 06:26:27;;;;;;;21.92;6.28;;;;;;;5.24;62.65;102382.06;8002175;28;20205;-68
2021/11/18 06:30:34;;;;;;;15.38;6.53;;;;;;;5.26;62.84;102385.53;7993362;28;20523;-68
2021/11/18 06:34:29;;;;;;;16.23;6.82;;;;;;;5.27;62.59;102392.44;8000585;28;20067;-66
2021/11/18 06:38:20;;;;;;;15.18;5.95;;;;;;;5.25;62.52;102390.75;8002361;28;20070;-69
2021/11/18 06:42:12;;;;;;;12.27;6.00;;;;;;;5.33;62.73;102394.94;8002503;28;20132;-68
2021/11/18 06:46:05;;;;;;;15.32;5.88;;;;;;;5.34;62.89;102386.22;8002612;28;20090;-68
2021/11/18 06:49:56;;;;;;;11.07;5.40;;;;;;;5.37;62.61;102393.97;8002313;28;20108;-67
2021/11/18 06:53:48;;;;;;;17.00;6.38;;;;;;;5.38;62.36;102400.91;7999851;28;20033;-65
2021/11/18 06:57:46;;;;;;;18.73;6.65;;;;;;;5.40;62.58;102399.13;8002586;28;20036;-68
2021/11/18 07:01:37;;;;;;;17.83;7.22;;;;;;;5.43;62.91;102408.63;8002024;28;20163;-67
2021/11/18 07:05:28;;;;;;;17.55;6.70;;;;;;;5.45;62.64;102425.09;8001342;28;20118;-67
2021/11/18 07:09:20;;;;;;;17.75;6.18;;;;;;;5.47;62.82;102432.00;8000279;28;20028;-68
2021/11/18 07:13:34;;;;;;;16.17;6.07;;;;;;;5.50;62.84;102431.94;7998688;28;20048;-67
2021/11/18 07:17:25;;;;;;;19.13;6.55;;;;;;;5.50;62.69;102416.28;8005632;28;20041;-67
2021/11/18 07:21:22;;;;;;;14.38;6.00;;;;;;;5.53;62.63;102417.97;8003044;28;20075;-68
2021/11/18 07:25:18;;;;;;;12.82;5.00;;;;;;;5.55;62.78;102426.63;8006140;28;20037;-67
2021/11/18 07:29:12;;;;;;;12.48;5.78;;;;;;;5.58;62.87;102444.81;8007825;28;20036;-68
2021/11/18 07:33:04;;;;;;;18.55;6.10;;;;;;;5.53;62.62;102439.69;8008109;28;20033;-67
2021/11/18 07:36:56;;;;;;;22.70;6.20;;;;;;;5.59;62.72;102449.13;8006872;28;20029;-67
2021/11/18 07:40:52;;;;;;;17.38;6.80;;;;;;;5.63;63.16;102459.47;8004035;28;20167;-67
2021/11/18 07:44:48;;;;;;;10.43;5.45;;;;;;;5.65;63.09;102449.84;8007140;28;20055;-67
2021/11/18 07:49:01;;;;;;;14.43;5.47;;;;;;;5.69;62.89;102444.56;8007148;28;20078;-67
2021/11/18 07:52:58;;;;;;;12.45;5.50;;;;;;;5.74;62.84;102453.16;8003469;28;20029;-70
2021/11/18 07:56:49;;;;;;;14.07;5.07;;;;;;;5.78;63.22;102457.44;8006632;28;20029;-67
2021/11/18 08:00:44;;;;;;;13.75;5.57;;;;;;;5.82;63.17;102452.13;7987040;28;20036;-66
2021/11/18 08:04:44;;;;;;;14.73;5.25;;;;;;;5.85;63.29;102454.66;8006910;28;20485;-68
2021/11/18 08:08:44;;;;;;;14.30;5.32;;;;;;;5.89;63.38;102460.69;8006241;28;20033;-68
2021/11/18 08:12:36;;;;;;;14.05;4.22;;;;;;;5.93;63.20;102464.94;8006588;28;20037;-67
2021/11/18 08:16:27;;;;;;;14.65;5.03;;;;;;;5.96;63.08;102457.91;8007222;28;20565;-65
2021/11/18 08:20:23;;;;;;;17.48;6.43;;;;;;;5.98;63.20;102461.31;8004218;28;20029;-63
2021/11/18 08:24:17;;;;;;;11.85;4.68;;;;;;;6.00;63.27;102449.13;8005877;28;20036;-67
2021/11/18 08:28:08;;;;;;;11.40;4.40;;;;;;;6.05;63.05;102468.16;8006180;28;20036;-65
2021/11/18 08:31:59;;;;;;;11.98;4.45;;;;;;;6.10;63.19;102460.19;8005604;28;20040;-65
2021/11/18 08:36:10;;;;;;;13.68;4.85;;;;;;;6.14;63.27;102458.41;8005315;28;20045;-65
2021/11/18 08:40:02;;;;;;;12.52;4.18;;;;;;;6.19;63.40;102466.97;8006634;28;20033;-65
2021/11/18 08:43:54;;;;;;;10.95;4.60;;;;;;;6.24;63.38;102479.03;8005483;28;20036;-68
2021/11/18 08:47:45;;;;;;;15.98;5.18;;;;;;;6.30;63.44;102494.56;8005106;28;20067;-65
2021/11/18 08:51:38;;;;;;;10.65;4.35;;;;;;;6.35;63.26;102492.69;8003302;28;20052;-67
2021/11/18 08:55:35;;;;;;;11.45;5.25;;;;;;;6.42;63.14;102498.63;8004787;28;20072;-67
2021/11/18 08:59:27;;;;;;;11.55;4.80;;;;;;;6.45;63.74;102509.00;8001579;28;20120;-67
2021/11/18 09:03:33;;;;;;;12.98;5.60;;;;;;;6.49;63.46;102515.88;8004333;28;20663;-65
2021/11/18 09:07:27;;;;;;;13.73;4.93;;;;;;;6.53;63.44;102517.50;8002826;28;20496;-65
2021/11/18 09:11:18;;;;;;;11.90;5.07;;;;;;;6.57;63.44;102501.75;8004084;28;20032;-65
2021/11/18 09:15:18;;;;;;;15.18;4.85;;;;;;;6.59;63.58;102481.66;8004631;28;20033;-67
2021/11/18 09:19:14;;;;;;;18.13;4.50;;;;;;;6.67;63.32;102501.53;8007207;28;20035;-66
2021/11/18 09:23:07;;;;;;;15.38;5.07;;;;;;;6.72;63.61;102505.75;7998238;28;20079;-67
2021/11/18 09:27:07;;;;;;;13.93;5.45;;;;;;;6.76;63.47;102517.00;8003196;28;20040;-65
2021/11/18 09:31:03;;;;;;;11.85;4.43;;;;;;;6.78;63.48;102508.22;8004181;28;20036;-68
2021/11/18 09:35:04;;;;;;;14.15;5.20;;;;;;;6.75;63.31;102500.47;8004302;28;20040;-65
2021/11/18 09:38:57;;;;;;;10.03;4.63;;;;;;;6.75;63.57;102495.25;8003943;28;20021;-66
2021/11/18 09:43:26;;;;;;;13.63;5.10;;;;;;;6.81;63.57;102507.28;8003488;28;20041;-64
2021/11/18 09:47:52;;;;;;;15.95;5.85;;;;;;;6.83;63.70;102511.59;7987873;28;20032;-67
2021/11/18 09:52:03;;;;;;;13.95;5.57;;;;;;;6.85;63.53;102503.69;8001910;28;20056;-66
2021/11/18 09:56:19;;;;;;;11.57;4.50;;;;;;;6.89;63.63;102514.03;7996315;28;20121;-68
2021/11/18 10:00:26;;;;;;;12.45;5.13;;;;;;;6.94;63.84;102519.16;8001856;28;20065;-69
2021/11/18 10:04:42;;;;;;;13.80;4.75;;;;;;;6.97;63.66;102519.06;8005158;28;20039;-67
2021/11/18 10:08:45;;;;;;;13.75;5.05;;;;;;;7.01;63.46;102525.94;8002743;28;20037;-68
2021/11/18 10:13:04;;;;;;;12.57;5.10;;;;;;;7.03;63.65;102532.00;8003302;28;20536;-67
2021/11/18 10:17:14;;;;;;;13.02;4.85;;;;;;;7.09;63.95;102534.47;8003073;28;20044;-67
2021/11/18 10:21:27;;;;;;;10.18;4.45;;;;;;;7.13;63.39;102530.03;8000047;28;20013;-66
2021/11/18 10:25:32;;;;;;;16.48;6.00;;;;;;;7.18;63.75;102530.75;8000760;28;20060;-64
2021/11/18 10:29:26;;;;;;;16.65;5.15;;;;;;;7.22;63.57;102535.84;8001010;28;20486;-65
2021/11/18 10:33:19;;;;;;;13.55;5.03;;;;;;;7.26;63.94;102521.81;8002994;28;20052;-65
2021/11/18 10:37:30;;;;;;;17.65;4.72;;;;;;;7.32;63.87;102524.28;8003418;28;20039;-67
2021/11/18 10:41:31;;;;;;;19.50;5.90;;;;;;;7.37;63.86;102519.78;7998600;28;20033;-65
2021/11/18 10:45:28;;;;;;;10.70;3.97;;;;;;;7.44;63.81;102526.56;8000541;28;20049;-68
2021/11/18 10:49:34;;;;;;;13.40;4.60;;;;;;;7.50;63.41;102517.69;8000501;28;20067;-68
2021/11/18 10:53:28;;;;;;;14.65;3.75;;;;;;;7.55;63.68;102518.41;8004070;28;20029;-67
2021/11/18 10:57:22;;;;;;;10.13;3.30;;;;;;;7.59;63.42;102509.56;8007484;28;20735;-65
2021/11/18 11:01:25;;;;;;;14.43;3.80;;;;;;;7.61;63.52;102509.53;8006274;28;20025;-66
2021/11/18 11:05:33;;;;;;;13.48;3.70;;;;;;;7.62;63.21;102503.44;8010343;28;20036;-66
2021/11/18 11:09:32;;;;;;;;;;;;;;;7.53;63.63;102493.22;8010119;28;20031;-66
2021/11/18 11:13:51;;;;;;;11.80;2.63;;;;;;;7.53;63.54;102486.22;8009120;28;20573;-68
2021/11/18 11:18:00;;;;;;;;;;;;;;;7.50;63.72;102475.84;8007839;28;20037;-67
2021/11/18 11:22:04;;;;;;;11.88;4.45;;;;;;;7.59;63.62;102474.75;8006111;28;19920;-67
2021/11/18 11:26:10;;;;;;;9.63;4.03;;;;;;;7.66;63.40;102473.66;8005176;28;20037;-67
2021/11/18 11:30:19;;;;;;;13.10;3.70;;;;;;;7.70;63.44;102481.38;8007661;28;20055;-68
2021/11/18 11:34:15;;;;;;;;;;;;;;;7.64;63.74;102499.84;8008917;28;20048;-68
2021/11/18 11:38:30;;;;;;;9.55;3.25;;;;;;;7.71;63.64;102501.38;8003231;28;19916;-67
2021/11/18 11:42:43;;;;;;;16.50;3.92;;;;;;;7.76;63.22;102483.81;8005976;28;20441;-67
2021/11/18 11:46:59;;;;;;;13.40;4.10;;;;;;;7.80;63.52;102474.97;8007485;28;20035;-67
2021/11/18 11:51:19;;;;;;;11.18;3.38;;;;;;;7.81;63.34;102484.53;8003127;28;20029;-68
2021/11/18 11:55:35;;;;;;;11.10;3.90;;;;;;;7.86;63.04;102484.41;8008001;28;20159;-67
2021/11/18 11:59:36;;;;;;;9.23;3.05;;;;;;;7.90;63.05;102478.19;8003455;28;20025;-66
2021/11/18 12:03:37;;;;;;;14.00;3.97;;;;;;;7.85;63.03;102451.28;8006675;28;20033;-68
2021/11/18 12:07:48;;;;;;;12.45;4.25;;;;;;;7.96;63.13;102467.53;8007401;28;20630;-67
2021/11/18 12:11:54;;;;;;;10.90;4.40;;;;;;;8.00;63.01;102463.06;8006444;28;20495;-67
2021/11/18 12:15:51;;;;;;;12.98;3.35;;;;;;;8.03;62.80;102453.38;8007816;28;20036;-67
2021/11/18 12:20:12;;;;;;;9.82;3.88;;;;;;;8.05;63.15;102467.25;8006510;28;20503;-67
2021/11/18 12:24:14;;;;;;;14.73;3.75;;;;;;;8.08;63.06;102459.31;8003842;28;20043;-67
2021/11/18 12:28:19;;;;;;;10.50;3.80;;;;;;;8.12;62.70;102444.41;8005254;28;20383;-67
2021/11/18 12:32:10;;;;;;;11.25;3.58;;;;;;;8.15;62.73;102447.78;8005788;28;20482;-67
2021/11/18 12:36:12;;;;;;;10.98;3.25;;;;;;;8.17;62.78;102434.66;8005866;28;20097;-67
2021/11/18 12:40:12;;;;;;;15.25;3.13;;;;;;;8.19;62.56;102423.22;7999728;28;20064;-67
2021/11/18 12:44:33;;;;;;;14.60;2.58;;;;;;;8.22;62.60;102440.59;8006279;28;20388;-67
2021/11/18 12:48:46;;;;;;;12.68;3.28;;;;;;;8.18;62.83;102410.16;8002435;28;20065;-67
2021/11/18 12:52:41;;;;;;;10.55;2.78;;;;;;;8.24;62.63;102413.47;7992317;28;20045;-66
2021/11/18 12:56:52;;;;;;;8.50;3.33;;;;;;;8.24;62.42;102408.22;8005531;28;20037;-67
2021/11/18 13:00:46;;;;;;;12.25;3.47;;;;;;;8.28;62.28;102393.28;8003000;28;20029;-66
2021/11/18 13:04:52;;;;;;;13.60;2.85;;;;;;;8.27;62.60;102383.69;8006175;28;20029;-65
2021/11/18 13:08:52;;;;;;;9.23;2.50;;;;;;;8.28;62.71;102386.28;8004321;28;20065;-67
2021/11/18 13:12:45;;;;;;;13.73;3.63;;;;;;;8.29;62.37;102390.59;8006980;28;20033;-65
2021/11/18 13:16:55;;;;;;;8.45;2.88;;;;;;;8.30;62.56;102384.44;8003634;28;20094;-67
2021/11/18 13:20:54;;;;;;;11.10;3.03;;;;;;;8.32;62.22;102390.50;8002937;28;20104;-67
2021/11/18 13:25:13;;;;;;;11.90;2.60;;;;;;;8.31;62.42;102391.41;8002020;28;20025;-67
2021/11/18 13:29:10;;;;;;;9.07;2.38;;;;;;;8.33;62.29;102394.00;8005282;28;20104;-67
2021/11/18 13:33:38;;;;;;;10.07;2.58;;;;;;;8.28;62.27;102386.28;8000461;28;20398;-67
2021/11/18 13:37:33;;;;;;;8.38;2.90;;;;;;;8.35;62.22;102394.78;7998985;28;20040;-65
2021/11/18 13:41:51;;;;;;;7.45;2.55;;;;;;;8.34;62.31;102386.06;8005406;28;20531;-67
2021/11/18 13:46:00;;;;;;;9.38;2.38;;;;;;;8.36;62.08;102386.03;8001074;28;20037;-67
2021/11/18 13:49:53;;;;;;;12.02;2.55;;;;;;;8.40;62.27;102391.13;7999333;28;20040;-67
2021/11/18 13:53:55;;;;;;;12.30;2.60;;;;;;;8.42;62.24;102391.03;8002344;28;20056;-67
2021/11/18 13:57:48;;;;;;;10.75;2.90;;;;;;;8.43;62.04;102384.91;8003401;28;20036;-67
2021/11/18 14:01:49;;;;;;;7.97;2.22;;;;;;;8.46;62.10;102381.34;8004596;28;20810;-67
2021/11/18 14:05:51;;;;;;;9.50;2.30;;;;;;;8.48;62.04;102379.53;7999604;28;20033;-65
2021/11/18 14:09:54;;;;;;;8.95;2.83;;;;;;;8.49;62.16;102369.00;7999922;28;20033;-67
2021/11/18 14:13:59;;;;;;;11.70;2.50;;;;;;;8.49;61.80;102369.00;8003159;28;20104;-68
2021/11/18 14:18:13;;;;;;;12.18;2.70;;;;;;;8.49;61.89;102358.53;8001879;28;20036;-66
2021/11/18 14:22:10;;;;;;;13.88;3.28;;;;;;;8.50;61.83;102346.28;7995842;28;20044;-67
2021/11/18 14:26:23;;;;;;;9.38;2.40;;;;;;;8.49;61.81;102370.75;8004601;28;20024;-66
2021/11/18 14:30:39;;;;;;;8.35;3.10;;;;;;;8.43;61.94;102360.47;8010402;28;20498;-66
2021/11/18 14:34:54;;;;;;;12.18;2.60;;;;;;;8.49;61.74;102365.53;8009069;28;20464;-67
2021/11/18 14:38:50;;;;;;;8.80;2.28;;;;;;;8.47;61.58;102344.63;8007139;28;20086;-66
2021/11/18 14:42:55;;;;;;;10.07;2.10;;;;;;;8.45;61.63;102354.31;8007499;28;20032;-67
2021/11/18 14:47:28;;;;;;;11.52;2.55;;;;;;;8.46;61.72;102363.03;8010459;28;20021;-66
2021/11/18 14:51:18;;;;;;;11.90;2.17;;;;;;;8.45;61.88;102364.78;8004035;28;20039;-67
2021/11/18 14:55:21;;;;;;;10.10;2.50;;;;;;;8.46;61.73;102361.22;8009615;28;20422;-66
2021/11/18 14:59:14;;;;;;;9.07;2.40;;;;;;;8.38;61.62;102351.00;8008592;28;20141;-67
2021/11/18 15:03:11;;;;;;;8.25;1.95;;;;;;;8.45;61.76;102370.00;8008481;28;20502;-66
2021/11/18 15:07:06;;;;;;;5.75;2.10;;;;;;;8.45;61.60;102369.16;8005418;28;20029;-66
2021/11/18 15:10:56;;;;;;;8.15;2.85;;;;;;;8.44;61.47;102380.53;8006019;28;20037;-66
2021/11/18 15:14:47;;;;;;;5.80;1.80;;;;;;;8.40;61.47;102390.25;8009004;28;20044;-66
2021/11/18 15:18:38;;;;;;;8.43;2.95;;;;;;;8.42;61.61;102401.53;8009305;28;20033;-66
2021/11/18 15:22:30;;;;;;;4.57;1.85;;;;;;;8.40;61.40;102404.22;8003861;28;20040;-66
2021/11/18 15:26:24;;;;;;;7.65;2.17;;;;;;;8.35;61.27;102386.94;8007531;28;20548;-66
2021/11/18 15:30:20;;;;;;;9.60;2.60;;;;;;;8.35;61.37;102398.25;8003507;28;20116;-67
2021/11/18 15:34:11;;;;;;;8.43;2.20;;;;;;;8.32;61.21;102406.22;8002327;28;20029;-66
2021/11/18 15:38:07;;;;;;;3.47;1.55;;;;;;;8.29;61.35;102406.28;8005528;28;20040;-66
2021/11/18 15:42:01;;;;;;;5.50;1.67;;;;;;;8.26;61.37;102403.78;8006275;28;20188;-67
2021/11/18 15:45:52;;;;;;;10.48;2.00;;;;;;;8.24;61.43;102418.72;8005304;28;20029;-66
2021/11/18 15:49:44;;;;;;;5.22;2.13;;;;;;;8.20;61.36;102422.31;8005947;28;20368;-67
2021/11/18 15:53:36;;;;;;;8.40;2.40;;;;;;;8.13;61.10;102398.97;8003210;28;20104;-67
2021/11/18 15:57:27;;;;;;;10.82;3.03;;;;;;;8.18;61.11;102413.66;8010645;28;20045;-67
2021/11/18 16:01:23;;;;;;;8.43;2.35;;;;;;;8.15;61.08;102419.00;8008702;28;20037;-67
2021/11/18 16:05:14;;;;;;;6.32;2.55;;;;;;;8.14;61.20;102419.88;8007542;28;20078;-67
2021/11/18 16:09:08;;;;;;;7.88;2.63;;;;;;;8.10;61.03;102427.84;8007417;28;20025;-67
2021/11/18 16:13:06;;;;;;;8.60;2.40;;;;;;;8.07;60.93;102422.72;8004849;28;20032;-68
2021/11/18 16:17:03;;;;;;;;;;;;;;;7.93;60.99;102425.75;7999194;28;20048;-67
2021/11/18 16:20:56;;;;;;;6.80;2.13;;;;;;;7.94;60.98;102428.31;8002607;28;20009;-67
2021/11/18 16:24:47;;;;;;;8.88;2.17;;;;;;;7.90;61.08;102429.31;8001569;28;20083;-67
2021/11/18 16:28:40;;;;;;;11.90;2.15;;;;;;;7.90;60.86;102423.22;8002807;28;20025;-67
2021/11/18 16:32:31;;;;;;;6.95;2.47;;;;;;;7.86;61.07;102419.84;8008461;28;20111;-68
2021/11/18 16:36:23;;;;;;;9.02;2.30;;;;;;;7.86;60.78;102416.38;8007634;28;20131;-67
2021/11/18 16:40:28;;;;;;;10.45;2.80;;;;;;;7.84;60.71;102407.69;8007607;28;20066;-67
2021/11/18 16:44:19;;;;;;;9.88;2.40;;;;;;;7.81;61.14;102410.41;8007040;28;20035;-68
2021/11/18 16:48:11;;;;;;;9.77;2.40;;;;;;;7.79;61.08;102410.50;8005601;28;20121;-67
2021/11/18 16:52:08;;;;;;;9.60;1.95;;;;;;;7.81;61.25;102413.03;8004379;28;20036;-65
2021/11/18 16:56:00;;;;;;;9.40;2.70;;;;;;;7.82;61.12;102420.00;8005652;28;20386;-67
2021/11/18 16:59:51;;;;;;;8.93;2.72;;;;;;;7.83;61.11;102424.34;8006636;28;20691;-68
2021/11/18 17:03:42;;;;;;;4.68;1.80;;;;;;;7.79;61.27;102409.63;8006615;28;20039;-68
2021/11/18 17:07:33;;;;;;;6.88;2.03;;;;;;;7.83;61.03;102426.94;8005747;28;20032;-68
2021/11/18 17:11:28;;;;;;;14.07;3.17;;;;;;;7.90;61.20;102431.09;8004586;28;20540;-68
2021/11/18 17:15:24;;;;;;;11.27;2.80;;;;;;;7.92;61.55;102429.25;8003689;28;20136;-68
2021/11/18 17:19:15;;;;;;;9.85;2.40;;;;;;;7.94;61.32;102430.94;8001257;28;20555;-68
2021/11/18 17:23:08;;;;;;;8.38;2.58;;;;;;;7.98;61.53;102433.47;8001543;28;20032;-68
2021/11/18 17:27:01;;;;;;;15.02;3.78;;;;;;;7.98;61.29;102431.69;8001780;28;20031;-68
2021/11/18 17:30:55;;;;;;;8.20;2.33;;;;;;;7.93;61.32;102415.28;8002845;28;20120;-68
2021/11/18 17:34:47;;;;;;;5.85;2.13;;;;;;;8.05;61.58;102432.34;8001807;28;20110;-68
2021/11/18 17:38:41;;;;;;;6.75;2.50;;;;;;;8.08;61.32;102425.28;7998243;28;20493;-68
2021/11/18 17:42:32;;;;;;;14.85;2.88;;;;;;;8.09;61.21;102418.28;8003779;28;20402;-68
2021/11/18 17:46:27;;;;;;;10.65;2.65;;;;;;;8.09;61.40;102421.75;8004155;28;20036;-71
2021/11/18 17:50:25;;;;;;;11.73;3.40;;;;;;;8.11;61.20;102434.84;8003003;28;20437;-70
2021/11/18 17:54:17;;;;;;;4.72;2.05;;;;;;;8.12;61.26;102442.66;8001761;28;20033;-68
2021/11/18 17:58:09;;;;;;;7.68;2.50;;;;;;;8.13;61.36;102452.19;7997978;28;20677;-70
2021/11/18 18:02:08;;;;;;;7.85;2.47;;;;;;;8.15;61.33;102460.88;8002168;28;20032;-73
2021/11/18 18:05:59;;;;;;;6.80;3.25;;;;;;;8.17;61.38;102468.69;7999973;28;20025;-73
2021/11/18 18:09:52;;;;;;;6.18;2.00;;;;;;;8.20;61.54;102476.44;8002585;28;20447;-72
2021/11/18 18:13:45;;;;;;;12.57;3.17;;;;;;;8.23;61.34;102478.97;8004876;28;20065;-71
2021/11/18 18:17:38;;;;;;;12.77;3.08;;;;;;;8.24;61.30;102478.91;8003827;28;20033;-70
2021/11/18 18:21:28;;;;;;;9.57;2.63;;;;;;;8.25;61.35;102487.63;8001834;28;20033;-73
2021/11/18 18:25:20;;;;;;;7.78;2.67;;;;;;;8.28;61.39;102488.41;8004113;28;20542;-71
2021/11/18 18:29:11;;;;;;;13.80;2.55;;;;;;;8.31;61.16;102483.06;8001214;28;20033;-72
2021/11/18 18:33:01;;;;;;;9.75;2.38;;;;;;;8.25;61.46;102485.84;8003365;28;20029;-72